Main page
METAR-TAF:

METAR-TAF

Airports :

MoD Boscombe Down

Boscombe Down, England

latitude: 51-10N, longitude: 001-45W, elevation: 124 m

Current weather observation

The report was made 1 hour and 3 minutes ago, at 21:50 UTC
Wind 6 kt from the East/Southeast
Temperature 7°C
Humidity 93%
Pressure 996 hPa
Visibility: 2300 m
mist

METAR: EGDM 212150Z AUTO 11006KT 2300 BR BKN003/// BKN012/// 07/06 Q0996

Time: 22:53 (22:53 UTC)

Forecast

The report was made 9 hours and 17 minutes ago, at 13:36 UTC
Forecast valid from 21 at 15 UTC to 21 at 19 UTC
Wind 12 kt from the East
Visibility: 3000 m
Broken clouds at a height of 500 ft
mist
Temporary
from 21 at 15 UTC to 21 at 19 UTC
Visibility: 6000 m
Broken clouds at a height of 800 ft
light rain
Probability 40% :
Temporary
from 21 at 15 UTC to 21 at 19 UTC
Broken clouds at a height of 300 ft

TAF: EGDM 211336Z 2115/2119 10012KT 3000 BR BKN005 TEMPO 2115/2119 6000 -RA BKN008 PROB40 TEMPO 2115/2119 BKN003

Weather observations and forecasts of more than 4000 airports (METAR and TAF reports).

The available stations are represented by yellow and red dots on the map.

Hover mouse over dot to see the name of the station.

Then click to see weather observations and forecasts.

To change the map : click on the green buttons with a black cross to zoom in, on the green button with a dash to zoom out, or on the green arrows for adjacent maps.


METAR-TAF: